createdAt,value
2022-10-04T00:04:04.576Z,99.90
2022-10-04T00:08:26.528Z,99.90
2022-10-04T00:10:32.580Z,99.90
2022-10-04T00:12:41.418Z,99.90
2022-10-04T00:14:45.503Z,99.90
2022-10-04T00:16:50.066Z,99.90
2022-10-04T00:19:04.587Z,99.90
2022-10-04T00:23:30.420Z,99.90
2022-10-04T00:25:37.480Z,99.90
2022-10-04T00:28:28.678Z,99.90
2022-10-04T00:30:38.451Z,99.90
2022-10-04T00:34:54.173Z,99.90
2022-10-04T00:36:58.444Z,99.90
2022-10-04T00:39:26.821Z,99.90
2022-10-04T00:41:35.543Z,99.90
2022-10-04T00:43:44.049Z,99.90
2022-10-04T00:45:50.152Z,99.90
2022-10-04T00:48:31.108Z,99.90
2022-10-04T00:50:38.395Z,99.90
2022-10-04T00:52:46.876Z,99.90
2022-10-04T00:54:53.238Z,99.90
2022-10-04T00:56:59.407Z,99.90
2022-10-04T01:01:15.360Z,99.90
2022-10-04T01:03:25.240Z,99.90
2022-10-04T01:05:33.549Z,99.90
2022-10-04T01:07:42.061Z,99.90
2022-10-04T01:12:01.540Z,99.90
2022-10-04T01:14:11.285Z,99.90
2022-10-04T01:16:18.826Z,99.90
2022-10-04T01:18:31.539Z,99.90
2022-10-04T01:20:37.330Z,99.90
2022-10-04T01:22:45.488Z,99.90
2022-10-04T01:24:48.875Z,99.90
2022-10-04T01:26:52.630Z,99.90
2022-10-04T01:28:59.201Z,99.90
2022-10-04T01:31:02.841Z,99.90
2022-10-04T01:33:07.063Z,99.90
2022-10-04T01:35:11.837Z,99.90
2022-10-04T01:37:15.202Z,99.90
2022-10-04T01:39:22.609Z,99.90
2022-10-04T01:41:30.220Z,99.90
2022-10-04T01:47:49.279Z,99.90
2022-10-04T01:49:55.744Z,99.90
2022-10-04T01:52:04.389Z,99.90
2022-10-04T01:54:11.683Z,99.90
2022-10-04T01:58:27.170Z,99.90
2022-10-04T02:02:37.924Z,99.90
2022-10-04T02:04:42.445Z,99.90
2022-10-04T02:06:47.981Z,99.90
2022-10-04T02:08:57.638Z,99.90
2022-10-04T02:11:02.888Z,99.90
2022-10-04T02:13:12.008Z,99.90
2022-10-04T02:15:16.116Z,99.90
2022-10-04T02:17:20.052Z,99.90
2022-10-04T02:21:28.627Z,99.90
2022-10-04T02:23:32.547Z,99.90
2022-10-04T02:25:38.252Z,99.90
2022-10-04T02:27:41.645Z,99.90
2022-10-04T02:29:46.301Z,99.90
2022-10-04T02:32:09.952Z,99.90
2022-10-04T02:34:13.871Z,99.90
2022-10-04T02:36:18.512Z,99.90
2022-10-04T02:38:26.576Z,99.90
2022-10-04T02:40:36.644Z,99.90
2022-10-04T02:42:45.679Z,99.90
2022-10-04T02:44:54.263Z,99.90
2022-10-04T02:47:07.488Z,99.90
2022-10-04T02:49:20.098Z,99.90
2022-10-04T02:51:27.212Z,99.90
2022-10-04T02:53:37.312Z,99.90
2022-10-04T02:55:43.587Z,99.90
2022-10-04T02:57:47.370Z,99.90
2022-10-04T03:02:02.233Z,99.90
2022-10-04T03:04:05.837Z,99.90
2022-10-04T03:08:14.565Z,99.90
2022-10-04T03:10:18.803Z,99.90
2022-10-04T03:12:22.235Z,99.90
2022-10-04T03:14:28.436Z,99.90
2022-10-04T03:16:38.316Z,99.90
2022-10-04T03:22:55.537Z,99.90
2022-10-04T03:24:59.773Z,99.90
2022-10-04T03:27:07.181Z,99.90
2022-10-04T03:29:12.766Z,99.90
2022-10-04T03:31:17.144Z,99.90
2022-10-04T03:33:25.162Z,99.90
2022-10-04T03:35:31.169Z,99.90
2022-10-04T03:37:38.756Z,99.90
2022-10-04T03:39:44.860Z,99.90
2022-10-04T03:41:48.462Z,99.90
2022-10-04T03:43:52.315Z,99.90
2022-10-04T03:45:58.489Z,99.90
2022-10-04T03:48:06.724Z,99.90
2022-10-04T03:50:17.331Z,99.90
2022-10-04T03:52:25.133Z,99.90
2022-10-04T03:54:29.571Z,99.90
2022-10-04T03:56:34.732Z,99.90
2022-10-04T03:58:38.504Z,99.90
2022-10-04T04:00:57.298Z,99.90
2022-10-04T04:03:02.980Z,99.90
2022-10-04T04:05:11.604Z,99.90
2022-10-04T04:07:21.537Z,99.90
2022-10-04T04:09:32.150Z,99.90
2022-10-04T04:11:37.208Z,99.90
2022-10-04T04:15:48.417Z,99.90
2022-10-04T04:17:55.527Z,99.90
2022-10-04T04:20:06.126Z,99.90
2022-10-04T04:22:16.725Z,99.90
2022-10-04T04:24:26.767Z,99.90
2022-10-04T04:26:37.476Z,99.90
2022-10-04T04:28:43.688Z,99.90
2022-10-04T04:30:49.642Z,99.90
2022-10-04T04:32:56.559Z,99.90
2022-10-04T04:35:07.243Z,99.90
2022-10-04T04:37:12.374Z,99.90
2022-10-04T04:39:37.440Z,99.90
2022-10-04T04:41:43.762Z,99.90
2022-10-04T04:43:52.937Z,99.90
2022-10-04T04:46:25.545Z,99.90
2022-10-04T04:48:24.276Z,99.90
2022-10-04T04:50:31.500Z,99.90
2022-10-04T04:52:36.167Z,99.90
2022-10-04T04:54:41.500Z,99.90
2022-10-04T04:56:45.570Z,99.90
2022-10-04T04:58:51.304Z,99.90
2022-10-04T05:00:58.663Z,99.90
2022-10-04T05:03:04.185Z,99.90
2022-10-04T05:05:22.307Z,99.90
2022-10-04T05:07:26.128Z,99.90
2022-10-04T05:09:32.429Z,99.90
2022-10-04T05:11:40.251Z,99.90
2022-10-04T05:13:47.731Z,99.90
2022-10-04T05:15:55.542Z,99.90
2022-10-04T05:17:59.572Z,99.90
2022-10-04T05:20:04.302Z,99.90
2022-10-04T05:22:12.203Z,99.90
2022-10-04T05:24:21.893Z,99.90
2022-10-04T05:26:30.419Z,99.90
2022-10-04T05:28:35.176Z,99.90
2022-10-04T05:30:48.756Z,99.90
2022-10-04T05:33:01.413Z,99.90
2022-10-04T05:35:14.830Z,99.90
2022-10-04T05:37:35.545Z,99.90
2022-10-04T05:39:44.640Z,99.90
2022-10-04T05:41:57.721Z,99.90
2022-10-04T05:44:04.261Z,99.90
2022-10-04T05:46:29.967Z,99.90
2022-10-04T05:48:33.623Z,99.90
2022-10-04T05:50:40.660Z,99.90
2022-10-04T05:52:45.032Z,99.90
2022-10-04T05:54:48.588Z,99.90
2022-10-04T05:57:21.656Z,99.90
2022-10-04T05:59:45.899Z,99.90
2022-10-04T06:01:58.425Z,99.90
2022-10-04T06:04:22.126Z,99.90
2022-10-04T06:06:32.300Z,99.90
2022-10-04T06:08:47.970Z,99.90
2022-10-04T06:11:14.305Z,99.90
2022-10-04T06:13:36.172Z,99.90
2022-10-04T06:15:58.737Z,99.90
2022-10-04T06:18:16.197Z,99.90
2022-10-04T06:20:55.508Z,99.90
2022-10-04T06:23:03.563Z,99.90
2022-10-04T06:25:11.416Z,99.90
2022-10-04T06:27:20.994Z,99.90
2022-10-04T06:29:27.774Z,99.90
2022-10-04T06:32:01.335Z,99.90
2022-10-04T06:34:43.529Z,99.90
2022-10-04T06:37:03.272Z,99.90
2022-10-04T06:39:28.952Z,99.90
2022-10-04T06:41:55.281Z,99.90
2022-10-04T06:46:28.656Z,99.90
2022-10-04T06:53:19.225Z,99.90
2022-10-04T06:55:48.180Z,99.90
2022-10-04T06:58:26.060Z,99.90
2022-10-04T07:00:36.885Z,99.90
2022-10-04T07:05:09.348Z,99.90
2022-10-04T07:07:35.214Z,99.90
2022-10-04T07:11:52.237Z,99.90
2022-10-04T07:14:01.084Z,99.90
2022-10-04T07:16:09.858Z,99.90
2022-10-04T07:18:19.622Z,99.90
2022-10-04T07:22:33.910Z,99.90
2022-10-04T07:29:10.913Z,99.90
2022-10-04T07:31:23.118Z,99.90
2022-10-04T10:57:13.799Z,32.20
2022-10-04T11:00:01.759Z,30.70
2022-10-04T11:16:59.453Z,33.10
2022-10-04T11:22:21.398Z,33.10
2022-10-04T11:27:20.713Z,30.00
2022-10-04T11:34:35.374Z,31.10
2022-10-04T11:48:03.137Z,33.70
2022-10-04T11:52:51.532Z,32.60
2022-10-04T11:59:48.888Z,33.70
2022-10-04T12:04:34.375Z,31.10
2022-10-04T12:06:57.727Z,31.10
2022-10-04T12:12:00.602Z,30.50
2022-10-04T12:14:24.552Z,33.60
2022-10-04T12:19:28.022Z,35.10
2022-10-04T12:26:43.542Z,31.70
2022-10-04T12:31:25.516Z,34.50
2022-10-04T12:33:36.035Z,30.90
2022-10-04T12:35:54.793Z,34.60
2022-10-04T12:38:25.280Z,32.90
2022-10-04T12:40:35.397Z,33.60
2022-10-04T12:42:47.005Z,36.40
2022-10-04T12:45:04.786Z,36.10
2022-10-04T12:47:38.675Z,33.70
2022-10-04T12:49:49.864Z,34.30
2022-10-04T12:52:06.879Z,32.80
2022-10-04T12:54:29.344Z,37.20
2022-10-04T12:56:48.386Z,33.10
2022-10-04T13:08:01.451Z,35.00
2022-10-04T13:10:25.051Z,37.40
2022-10-04T13:12:38.964Z,36.70
2022-10-04T13:28:24.765Z,36.60
2022-10-04T13:32:43.436Z,34.60
2022-10-04T13:34:56.265Z,35.10
2022-10-04T13:37:16.224Z,38.30
2022-10-04T13:39:59.562Z,35.40
2022-10-04T13:42:26.500Z,38.60
2022-10-04T13:44:49.447Z,38.80
2022-10-04T13:47:06.361Z,39.70
2022-10-04T13:49:25.937Z,38.40
2022-10-04T13:51:45.207Z,40.40
2022-10-04T13:54:16.335Z,37.70
2022-10-04T13:56:42.716Z,39.50
2022-10-04T13:58:49.933Z,40.00
2022-10-04T14:01:23.318Z,39.70
2022-10-04T14:03:46.946Z,41.90
2022-10-04T14:06:53.249Z,40.50
2022-10-04T14:09:29.353Z,42.00
2022-10-04T14:11:55.227Z,43.40
2022-10-04T14:14:21.796Z,41.20
2022-10-04T14:17:05.218Z,41.40
2022-10-04T14:19:41.930Z,40.30
2022-10-04T14:22:23.155Z,40.60
2022-10-04T14:25:12.325Z,42.10
2022-10-04T14:27:44.017Z,41.70
2022-10-04T14:30:08.271Z,44.70
2022-10-04T14:37:12.293Z,47.10
2022-10-04T14:39:36.609Z,48.70
2022-10-04T14:50:58.226Z,54.10
2022-10-04T14:53:17.168Z,55.20
2022-10-04T14:55:39.551Z,50.80
2022-10-04T14:58:06.129Z,55.30
2022-10-04T15:00:24.467Z,58.30
2022-10-04T15:03:05.988Z,60.80
2022-10-04T15:05:32.213Z,62.60
2022-10-04T15:07:38.602Z,60.50
2022-10-04T15:09:55.767Z,63.50
2022-10-04T15:12:27.284Z,63.60
2022-10-04T15:14:35.818Z,67.60
2022-10-04T15:16:52.941Z,66.40
2022-10-04T15:19:00.279Z,68.80
2022-10-04T15:21:12.427Z,72.30
2022-10-04T15:23:20.608Z,72.70
2022-10-04T15:25:41.456Z,74.10
2022-10-04T15:27:55.300Z,77.00
2022-10-04T15:30:11.285Z,82.60
2022-10-04T15:32:31.863Z,91.10
2022-10-04T15:34:46.415Z,96.60
2022-10-04T15:37:25.462Z,99.90
2022-10-04T15:40:04.217Z,99.90
2022-10-04T15:42:14.566Z,99.90
2022-10-04T15:44:47.970Z,99.90
2022-10-04T15:46:57.112Z,99.90
2022-10-04T15:49:25.265Z,99.90
2022-10-04T15:51:44.933Z,99.90
2022-10-04T15:54:08.344Z,99.90
2022-10-04T15:56:34.344Z,99.90
2022-10-04T15:59:23.174Z,99.90
2022-10-04T16:01:41.064Z,99.90
2022-10-04T16:03:51.996Z,99.90
2022-10-04T16:06:05.633Z,99.90
2022-10-04T16:08:33.394Z,99.90
2022-10-04T16:11:11.093Z,99.90
2022-10-04T16:13:28.724Z,99.90
2022-10-04T16:15:37.326Z,99.90
2022-10-04T16:18:02.654Z,99.90
2022-10-04T16:20:51.368Z,99.90
2022-10-04T16:23:29.105Z,99.90
2022-10-04T16:25:39.325Z,99.90
2022-10-04T16:27:59.420Z,99.90
2022-10-04T16:30:26.183Z,99.90
2022-10-04T16:32:39.183Z,99.90
2022-10-04T16:34:51.241Z,99.90
2022-10-04T16:37:00.000Z,99.90
2022-10-04T16:39:23.650Z,99.90
2022-10-04T16:41:36.763Z,99.90
2022-10-04T16:43:52.875Z,99.90
2022-10-04T16:46:10.989Z,99.90
2022-10-04T16:48:31.524Z,99.90
2022-10-04T16:51:12.174Z,99.90
2022-10-04T16:53:32.363Z,99.90
2022-10-04T16:55:53.352Z,99.90
2022-10-04T16:58:41.395Z,99.90
2022-10-04T17:00:44.867Z,99.90
2022-10-04T17:03:08.853Z,99.90
2022-10-04T17:05:36.098Z,99.90
2022-10-04T17:07:52.193Z,99.90
2022-10-04T17:10:04.270Z,99.90
2022-10-04T17:12:18.813Z,99.90
2022-10-04T17:14:57.790Z,99.90
2022-10-04T17:17:12.054Z,99.90
2022-10-04T17:19:26.052Z,99.90
2022-10-04T17:21:37.548Z,99.90
2022-10-04T17:24:10.940Z,99.90
2022-10-04T17:26:25.559Z,99.90
2022-10-04T17:28:35.317Z,99.90
2022-10-04T17:30:50.224Z,99.90
2022-10-04T17:33:16.493Z,99.90
2022-10-04T17:35:54.556Z,99.90
2022-10-04T17:38:02.761Z,99.90
2022-10-04T17:40:30.112Z,99.90
2022-10-04T17:42:44.297Z,99.90
2022-10-04T17:45:22.255Z,99.90
2022-10-04T17:47:54.889Z,99.90
2022-10-04T17:50:21.731Z,99.90
2022-10-04T17:52:49.259Z,99.90
2022-10-04T17:55:18.487Z,99.90
2022-10-04T17:57:30.817Z,99.90
2022-10-04T17:59:43.703Z,99.90
2022-10-04T18:01:54.881Z,99.90
2022-10-04T18:04:09.004Z,99.90
2022-10-04T18:06:25.967Z,99.90
2022-10-04T18:08:46.602Z,99.90
2022-10-04T18:10:53.481Z,99.90
2022-10-04T18:13:02.269Z,99.90
2022-10-04T18:15:16.328Z,99.90
2022-10-04T18:17:29.884Z,99.90
2022-10-04T18:19:41.581Z,99.90
2022-10-04T18:21:53.005Z,99.90
2022-10-04T18:23:59.425Z,99.90
2022-10-04T18:26:09.308Z,99.90
2022-10-04T18:28:15.600Z,99.90
2022-10-04T18:30:21.137Z,99.90
2022-10-04T18:32:38.083Z,99.90
2022-10-04T18:34:42.401Z,99.90
2022-10-04T18:36:56.282Z,99.90
2022-10-04T18:39:17.737Z,99.90
2022-10-04T18:41:24.363Z,99.90
2022-10-04T18:43:31.139Z,99.90
2022-10-04T18:45:37.285Z,99.90
2022-10-04T18:47:42.711Z,99.90
2022-10-04T18:49:51.076Z,99.90
2022-10-04T18:52:10.344Z,99.90
2022-10-04T18:54:25.135Z,99.90
2022-10-04T18:56:33.909Z,99.90
2022-10-04T18:59:12.092Z,99.90
2022-10-04T19:01:56.141Z,99.90
2022-10-04T19:04:09.900Z,99.90
2022-10-04T19:06:17.763Z,99.90
2022-10-04T19:08:35.799Z,99.90
2022-10-04T19:10:45.477Z,99.90
2022-10-04T19:13:10.941Z,99.90
2022-10-04T19:15:28.013Z,99.90
2022-10-04T19:17:36.163Z,99.90
2022-10-04T19:19:46.517Z,99.90
2022-10-04T19:21:59.202Z,99.90
2022-10-04T19:24:32.038Z,99.90
2022-10-04T19:26:40.016Z,99.90
2022-10-04T19:28:43.410Z,99.90
2022-10-04T19:31:01.036Z,99.90
2022-10-04T19:33:16.113Z,99.90
2022-10-04T19:35:31.265Z,99.90
2022-10-04T19:37:40.451Z,99.90
2022-10-04T19:39:51.795Z,99.90
2022-10-04T19:42:00.929Z,99.90
2022-10-04T19:44:14.638Z,99.90
2022-10-04T19:46:28.944Z,99.90
2022-10-04T19:48:38.546Z,99.90
2022-10-04T19:50:49.017Z,99.90
2022-10-04T19:52:55.469Z,99.90
2022-10-04T19:55:05.974Z,99.90
2022-10-04T19:57:15.238Z,99.90
2022-10-04T19:59:24.631Z,99.90
2022-10-04T20:01:29.997Z,99.90
2022-10-04T20:03:33.422Z,99.90
2022-10-04T20:05:46.048Z,99.90
2022-10-04T20:07:57.079Z,99.90
2022-10-04T20:10:23.337Z,99.90
2022-10-04T20:12:36.075Z,99.90
2022-10-04T20:14:48.639Z,99.90
2022-10-04T20:17:06.046Z,99.90
2022-10-04T20:19:22.560Z,99.90
2022-10-04T20:21:31.287Z,99.90
2022-10-04T20:23:59.037Z,99.90
2022-10-04T20:26:04.175Z,99.90
2022-10-04T20:28:08.487Z,99.90
2022-10-04T20:30:14.862Z,99.90
2022-10-04T20:32:51.433Z,99.90
2022-10-04T20:34:55.738Z,99.90
2022-10-04T20:37:00.964Z,99.90
2022-10-04T20:39:06.664Z,99.90
2022-10-04T20:42:03.360Z,99.90
2022-10-04T20:44:09.218Z,99.90
2022-10-04T20:46:23.996Z,99.90
2022-10-04T20:48:29.648Z,99.90
2022-10-04T20:50:42.228Z,99.90
2022-10-04T20:52:49.599Z,99.90
2022-10-04T20:54:53.813Z,99.90
2022-10-04T20:56:57.827Z,99.90
2022-10-04T20:59:02.660Z,99.90
2022-10-04T21:01:39.823Z,99.90
2022-10-04T21:03:43.245Z,99.90
2022-10-04T21:05:59.342Z,99.90
2022-10-04T21:08:31.115Z,99.90
2022-10-04T21:10:34.467Z,99.90
2022-10-04T21:12:40.623Z,99.90
2022-10-04T21:15:03.186Z,99.90
2022-10-04T21:17:27.234Z,99.90
2022-10-04T21:19:51.667Z,99.90
2022-10-04T21:21:54.942Z,99.90
2022-10-04T21:23:59.630Z,99.90
2022-10-04T21:26:22.278Z,99.90
2022-10-04T21:28:35.679Z,99.90
2022-10-04T21:30:39.130Z,99.90
2022-10-04T21:32:42.489Z,99.90
2022-10-04T21:34:53.494Z,99.90
2022-10-04T21:36:58.720Z,99.90
2022-10-04T21:39:03.336Z,99.90
2022-10-04T21:41:06.813Z,99.90
2022-10-04T21:43:10.486Z,99.90
2022-10-04T21:45:13.903Z,99.90
2022-10-04T21:47:17.529Z,99.90
2022-10-04T21:49:20.801Z,99.90
2022-10-04T21:51:23.921Z,99.90
2022-10-04T21:53:27.110Z,99.90
2022-10-04T21:55:31.732Z,99.90
2022-10-04T21:57:35.866Z,99.90
2022-10-04T21:59:39.204Z,99.90
2022-10-04T22:01:42.464Z,99.90
2022-10-04T22:03:45.581Z,99.90
2022-10-04T22:05:48.772Z,99.90
2022-10-04T22:07:52.028Z,99.90
2022-10-04T22:09:55.312Z,99.90
2022-10-04T22:11:59.954Z,99.90
2022-10-04T22:14:03.357Z,99.90
2022-10-04T22:16:07.520Z,99.90
2022-10-04T22:18:10.934Z,99.90
2022-10-04T22:20:14.171Z,99.90
2022-10-04T22:22:18.313Z,99.90
2022-10-04T22:24:22.641Z,99.90
2022-10-04T22:26:28.089Z,99.90
2022-10-04T22:28:34.765Z,99.90
2022-10-04T22:30:37.974Z,99.90
2022-10-04T22:32:41.337Z,99.90
2022-10-04T22:34:44.708Z,99.90
2022-10-04T22:36:49.938Z,99.90
2022-10-04T22:38:59.338Z,99.90
2022-10-04T22:41:02.608Z,99.90
2022-10-04T22:43:12.475Z,99.90
2022-10-04T22:45:24.012Z,99.90
2022-10-04T22:47:27.322Z,99.90
2022-10-04T22:49:33.295Z,99.90
2022-10-04T22:51:37.431Z,99.90
2022-10-04T22:53:44.488Z,99.90
2022-10-04T22:55:49.520Z,99.90
2022-10-04T22:57:52.980Z,99.90
2022-10-04T22:59:56.157Z,99.90
2022-10-04T23:02:07.129Z,99.90
2022-10-04T23:04:16.594Z,99.90
2022-10-04T23:06:19.951Z,99.90
2022-10-04T23:08:23.209Z,99.90
2022-10-04T23:10:26.453Z,99.90
2022-10-04T23:12:29.820Z,99.90
2022-10-04T23:14:35.776Z,99.90
2022-10-04T23:16:39.931Z,99.90
2022-10-04T23:18:44.747Z,99.90
2022-10-04T23:20:57.986Z,99.90
2022-10-04T23:23:01.341Z,99.90
2022-10-04T23:25:15.513Z,99.90
2022-10-04T23:27:19.416Z,99.90
2022-10-04T23:29:25.339Z,99.90
2022-10-04T23:31:28.864Z,99.90
2022-10-04T23:33:32.295Z,99.90
2022-10-04T23:35:36.953Z,99.90
2022-10-04T23:37:41.730Z,99.90
2022-10-04T23:39:45.913Z,99.90
2022-10-04T23:41:49.167Z,99.90
2022-10-04T23:43:52.672Z,99.90
2022-10-04T23:45:58.867Z,99.90
2022-10-04T23:48:02.457Z,99.90
2022-10-04T23:50:19.579Z,99.90
2022-10-04T23:52:27.323Z,99.90
2022-10-04T23:54:31.332Z,99.90
2022-10-04T23:56:34.551Z,99.90
2022-10-04T23:58:40.888Z,99.90
